Buoy 43533

sailwx.info

Track history (hours):
 
Tides and Currents Weather Stations Pressure Air Temp Water Temp Dewpoint Dewpoint Depression Visibility Wind Speed Wind Dir Waves Ship Positions

Drifting buoy 43533

Last reported at 2017-Nov-18 14:00 UTC. Time now 2017-Nov-18 15:27 UTC.
Position N 16°16' W 124°56'.

Length 24 m.

Type: Fishing. MMSI: 412466549.

Water temperature 26.7 ° C

Date/timePositionNaut miles runAvg speedWind from/ knotsBaromVisibWave heightAir tempDewpointWater temp
2017-Nov-18 14:00N 16°16' W 124°56'0 0.0 26.7
2017-Nov-18 13:00N 16°16' W 124°56'2 2.1 26.8
2017-Nov-18 12:00N 16°14' W 124°57'0 0.0 26.8
2017-Nov-18 11:00N 16°14' W 124°57'0 0.0 26.8
2017-Nov-18 10:00N 16°14' W 124°57'0 0.0 26.8
2017-Nov-18 06:00N 16°14' W 124°57'1 0.6 26.8
2017-Nov-18 05:00N 16°13' W 124°57'1 0.8 26.7
2017-Nov-18 04:00N 16°13' W 124°58'1 0.6 26.7
2017-Nov-18 03:00N 16°12' W 124°58'1 0.3 26.7
2017-Nov-18 01:00N 16°11' W 124°58'0 0.0 26.8
2017-Nov-18 00:00N 16°11' W 124°58'1 0.6 26.8
2017-Nov-17 23:00N 16°11' W 124°58'1 0.6 26.8
2017-Nov-17 22:00N 16°11' W 124°58'1 0.2 26.8
2017-Nov-17 19:00N 16°10' W 124°58'1 0.6 26.7
2017-Nov-17 18:00N 16°11' W 124°58'1 0.6 26.7
2017-Nov-17 17:00N 16°11' W 124°59'1 0.8 26.6
2017-Nov-17 16:00N 16°11' W 124°59'0 0.0 26.6
2017-Nov-17 15:00N 16°11' W 124°59'0 0.0 26.6
2017-Nov-17 14:00N 16°11' W 124°59'0 0.0 26.6
2017-Nov-17 13:00N 16°11' W 124°59'1 0.6 26.6
2017-Nov-17 12:00N 16°12' W 124°59'2 1.7 26.7
2017-Nov-17 11:00N 16°13' W 125°01'2 1.7 26.7
2017-Nov-17 10:00N 16°12' W 124°59'1 0.3 26.7
2017-Nov-17 06:00N 16°13' W 125°00'2 2.1 26.8
2017-Nov-17 05:00N 16°14' W 125°02'0 0.0 26.8
2017-Nov-17 04:00N 16°14' W 125°02'1 0.4 26.8
2017-Nov-17 02:00N 16°15' W 125°02'1 0.6 26.9
2017-Nov-17 01:00N 16°15' W 125°03'1 0.8 26.9
2017-Nov-17 00:00N 16°16' W 125°04'1 0.6 26.9
2017-Nov-16 22:00N 16°15' W 125°05'0 0.0 27.0
2017-Nov-16 18:00N 16°15' W 125°05'1 0.8 26.8
2017-Nov-16 17:00N 16°16' W 125°05'1 0.8 26.8
2017-Nov-16 16:00N 16°15' W 125°06'0 0.0 26.8
2017-Nov-16 15:00N 16°15' W 125°06'1 0.6 26.8
2017-Nov-16 14:00N 16°15' W 125°05'1 0.6 26.8
2017-Nov-16 13:00N 16°15' W 125°06'1 0.3 26.8
2017-Nov-16 11:00N 16°15' W 125°05'1 0.6 26.8
2017-Nov-16 10:00N 16°15' W 125°06'1 0.1 26.8
2017-Nov-16 06:00N 16°15' W 125°05'1 0.6 26.8
2017-Nov-16 05:00N 16°15' W 125°06'1 0.6 26.8
2017-Nov-16 04:00N 16°16' W 125°06'1 0.2 26.8
2017-Nov-16 01:00N 16°16' W 125°05'1 0.6 26.9
2017-Nov-16 00:00N 16°16' W 125°05'1 0.6 26.9
2017-Nov-15 23:00N 16°16' W 125°05'0 0.0 26.9
2017-Nov-15 22:00N 16°16' W 125°05'2 0.6 26.9
2017-Nov-15 18:00N 16°19' W 125°05'0 0.0 26.8
2017-Nov-15 17:00N 16°19' W 125°05'1 0.8 26.7
2017-Nov-15 16:00N 16°19' W 125°04'0 0.0 26.7
2017-Nov-15 15:00N 16°19' W 125°04'1 0.8 26.7
2017-Nov-15 14:00N 16°20' W 125°04'0 0.0 26.7
2017-Nov-15 13:00N 16°20' W 125°04'2 1.2 26.7
2017-Nov-15 11:00N 16°22' W 125°05'1 0.1 26.7
2017-Nov-15 06:00N 16°22' W 125°05'1 0.6 26.7
2017-Nov-15 05:00N 16°22' W 125°05'1 1.3 26.8
2017-Nov-15 04:00N 16°23' W 125°06'1 0.6 26.8
2017-Nov-15 03:00N 16°23' W 125°05'0 0.0 26.8
2017-Nov-15 02:00N 16°23' W 125°05'1 0.6 26.8
2017-Nov-15 01:00N 16°23' W 125°06'1 0.6 26.9
2017-Nov-15 00:00N 16°23' W 125°07'0 0.0 26.9
2017-Nov-14 23:00N 16°23' W 125°07'0 0.0 26.9
2017-Nov-14 22:00N 16°23' W 125°07'1 0.2 26.9
2017-Nov-14 19:00N 16°22' W 125°07'0 0.0 26.8
2017-Nov-14 17:00N 16°22' W 125°07'1 0.6 26.6
2017-Nov-14 16:00N 16°22' W 125°06'0 0.0 26.6
2017-Nov-14 15:00N 16°22' W 125°06'0 0.0 26.6
2017-Nov-14 14:00N 16°22' W 125°06'4 3.5 26.6
2017-Nov-14 13:00N 16°23' W 125°02'0 0.0 26.6
2017-Nov-14 12:00N 16°23' W 125°02'0 0.0 26.6
2017-Nov-14 11:00N 16°23' W 125°02'1 0.1 26.6
2017-Nov-14 06:00N 16°23' W 125°02'1 0.8 26.6
2017-Nov-14 05:00N 16°23' W 125°01'1 0.6 26.6
2017-Nov-14 03:00N 16°25' W 125°01'1 0.8 26.6
2017-Nov-14 02:00N 16°25' W 125°01'0 0.0 26.6
2017-Nov-14 01:00N 16°25' W 125°01'1 0.3 26.7
2017-Nov-13 23:00N 16°26' W 125°01'0 0.0 26.7
2017-Nov-13 22:00N 16°26' W 125°01'3 0.8 26.7
2017-Nov-13 18:00N 16°29' W 125°01'1 0.6 26.6
2017-Nov-13 17:00N 16°29' W 125°01'1 0.8 26.6
2017-Nov-13 16:00N 16°30' W 125°02'1 0.6 26.6
2017-Nov-13 15:00N 16°29' W 125°02'1 0.8 26.6
2017-Nov-13 14:00N 16°30' W 125°02'1 0.8 26.6
2017-Nov-13 13:00N 16°29' W 125°02'3 2.7 26.6
2017-Nov-13 12:00N 16°27' W 125°03'2 2.5 26.6
2017-Nov-13 11:00N 16°29' W 125°02'3 0.6 26.6
2017-Nov-13 06:00N 16°26' W 125°02'0 0.0 26.6
2017-Nov-13 05:00N 16°26' W 125°02'0 0.0 26.7
2017-Nov-13 04:00N 16°26' W 125°02'2 0.9 26.8
2017-Nov-13 02:00N 16°26' W 125°01'1 1.3 26.8
2017-Nov-13 01:00N 16°26' W 124°59'0 0.0 26.8
2017-Nov-13 00:00N 16°26' W 124°59'0 0.0 26.8
2017-Nov-12 23:00N 16°26' W 124°59'3 0.7 26.8
2017-Nov-12 19:00N 16°26' W 124°56'1 0.6 26.8
2017-Nov-12 18:00N 16°26' W 124°56'2 2.1 26.8
2017-Nov-12 17:00N 16°28' W 124°55'1 0.4 26.8
2017-Nov-12 15:00N 16°28' W 124°54'1 0.8 26.9
2017-Nov-12 14:00N 16°28' W 124°53'0 0.0 26.9
2017-Nov-12 13:00N 16°28' W 124°53'3 2.9 26.9
2017-Nov-12 12:00N 16°29' W 124°50'2 1.8 26.9
2017-Nov-12 11:00N 16°28' W 124°52'2 0.5 26.9
2017-Nov-12 06:00N 16°29' W 124°50'0 0.0 26.9
2017-Nov-12 05:00N 16°29' W 124°50'0 0.0 26.9
2017-Nov-12 04:00N 16°29' W 124°50'1 1.2 26.9
2017-Nov-12 03:00N 16°29' W 124°49'1 0.8 26.9
2017-Nov-12 02:00N 16°28' W 124°48'1 1.2 26.9
2017-Nov-12 01:00N 16°28' W 124°47'0 0.0 26.9
2017-Nov-11 23:00N 16°28' W 124°47'5 0.9 27.0
2017-Nov-11 18:00N 16°28' W 124°42'0 0.0 27.0
2017-Nov-11 17:00N 16°28' W 124°42'2 1.8 27.0
2017-Nov-11 16:00N 16°28' W 124°40'1 0.6 27.0
2017-Nov-11 15:00N 16°28' W 124°40'1 0.6 26.9
2017-Nov-11 14:00N 16°28' W 124°40'6 3.0 27.0
2017-Nov-11 12:00N 16°26' W 124°34'4 3.5 27.0
2017-Nov-11 11:00N 16°26' W 124°38'4 3.5 27.0
2017-Nov-11 10:00N 16°26' W 124°34'0 0.0 27.0
2017-Nov-11 06:00N 16°26' W 124°34'1 0.6 27.1
2017-Nov-11 05:00N 16°26' W 124°34'1 0.8 27.1
2017-Nov-11 04:00N 16°26' W 124°33'4 1.2 27.1
2017-Nov-11 01:00N 16°24' W 124°30'0 0.0 27.1
2017-Nov-11 00:00N 16°24' W 124°30'1 0.6 27.1
2017-Nov-10 23:00N 16°25' W 124°30'3 2.9 27.1
2017-Nov-10 22:00N 16°23' W 124°28'3 0.7 27.1
2017-Nov-10 18:00N 16°20' W 124°26'0 0.0 27.1
2017-Nov-10 17:00N 16°20' W 124°26'0 0.0 27.1
2017-Nov-10 16:00N 16°20' W 124°26'1 0.8 27.1
2017-Nov-10 15:00N 16°20' W 124°25'0 0.0 27.1
2017-Nov-10 14:00N 16°20' W 124°25'0 0.0 27.1
2017-Nov-10 13:00N 16°20' W 124°25'1 0.6 27.1
2017-Nov-10 12:00N 16°19' W 124°25'3 3.1 27.1
2017-Nov-10 11:00N 16°16' W 124°25'3 3.1 27.1
2017-Nov-10 10:00N 16°19' W 124°25'3 0.8 27.1
2017-Nov-10 06:00N 16°16' W 124°24'1 0.6 27.1
2017-Nov-10 05:00N 16°16' W 124°24'1 1.3 27.1
2017-Nov-10 04:00N 16°14' W 124°25'0 0.0 27.1
2017-Nov-10 03:00N 16°14' W 124°25'1 0.6 27.1
2017-Nov-10 02:00N 16°14' W 124°25'1 1.2 27.1
2017-Nov-10 01:00N 16°13' W 124°25'0 0.0 27.1
2017-Nov-10 00:00N 16°13' W 124°25'1 1.2 27.1
2017-Nov-09 23:00N 16°12' W 124°25'0 0.0 27.1
2017-Nov-09 22:00N 16°12' W 124°25'0 0.0 27.1
2017-Nov-09 21:00N 16°12' W 124°25'3 1.0 27.1
2017-Nov-09 18:00N 16°09' W 124°25'0 0.0 27.1
2017-Nov-09 17:00N 16°09' W 124°25'1 1.3 27.1
2017-Nov-09 16:00N 16°08' W 124°24'1 0.6 27.0
2017-Nov-09 15:00N 16°07' W 124°24'0 0.0 27.1
2017-Nov-09 14:00N 16°07' W 124°24'1 0.6 27.1
2017-Nov-09 13:00N 16°07' W 124°25'1 0.8 27.1
2017-Nov-09 12:00N 16°07' W 124°25'2 2.5 27.1
2017-Nov-09 11:00N 16°05' W 124°23'2 2.5 27.1
2017-Nov-09 10:00N 16°07' W 124°25'2 0.5 27.1
2017-Nov-09 06:00N 16°05' W 124°23'1 0.8 27.1
2017-Nov-09 05:00N 16°05' W 124°23'1 0.8 27.1
2017-Nov-09 04:00N 16°04' W 124°23'1 0.4 27.1
2017-Nov-09 02:00N 16°04' W 124°24'1 0.6 27.1
2017-Nov-09 01:00N 16°04' W 124°23'1 0.6 27.2
2017-Nov-09 00:00N 16°04' W 124°24'1 1.2 27.2
2017-Nov-08 23:00N 16°04' W 124°25'0 0.0 27.2
2017-Nov-08 22:00N 16°04' W 124°25'3 0.7 27.2
2017-Nov-08 18:00N 16°01' W 124°26'1 1.3 27.1
2017-Nov-08 17:00N 16°00' W 124°27'1 0.4 27.1
2017-Nov-08 15:00N 15°59' W 124°28'2 1.9 27.1
2017-Nov-08 14:00N 15°58' W 124°28'   27.1
Track history (hours):
 
Tides and Currents Weather Stations Pressure Air Temp Water Temp Dewpoint Dewpoint Depression Visibility Wind Speed Wind Dir Waves Ship Positions

Drifting buoy 43533

Last reported at 2017-Nov-18 14:00 UTC. Time now 2017-Nov-18 15:27 UTC.
Position N 16°16' W 124°56'.

Length 24 m.

Type: Fishing. MMSI: 412466549.

Water temperature 26.7 ° C

Date/timePositionNaut miles runAvg speedWind from/ knotsBaromVisibWave heightAir tempDewpointWater temp
2017-Nov-18 14:00N 16°16' W 124°56'0 0.0 26.7
2017-Nov-18 13:00N 16°16' W 124°56'2 2.1 26.8
2017-Nov-18 12:00N 16°14' W 124°57'0 0.0 26.8
2017-Nov-18 11:00N 16°14' W 124°57'0 0.0 26.8
2017-Nov-18 10:00N 16°14' W 124°57'0 0.0 26.8
2017-Nov-18 06:00N 16°14' W 124°57'1 0.6 26.8
2017-Nov-18 05:00N 16°13' W 124°57'1 0.8 26.7
2017-Nov-18 04:00N 16°13' W 124°58'1 0.6 26.7
2017-Nov-18 03:00N 16°12' W 124°58'1 0.3 26.7
2017-Nov-18 01:00N 16°11' W 124°58'0 0.0 26.8
2017-Nov-18 00:00N 16°11' W 124°58'1 0.6 26.8
2017-Nov-17 23:00N 16°11' W 124°58'1 0.6 26.8
2017-Nov-17 22:00N 16°11' W 124°58'1 0.2 26.8
2017-Nov-17 19:00N 16°10' W 124°58'1 0.6 26.7
2017-Nov-17 18:00N 16°11' W 124°58'1 0.6 26.7
2017-Nov-17 17:00N 16°11' W 124°59'1 0.8 26.6
2017-Nov-17 16:00N 16°11' W 124°59'0 0.0 26.6
2017-Nov-17 15:00N 16°11' W 124°59'0 0.0 26.6
2017-Nov-17 14:00N 16°11' W 124°59'0 0.0 26.6
2017-Nov-17 13:00N 16°11' W 124°59'1 0.6 26.6
2017-Nov-17 12:00N 16°12' W 124°59'2 1.7 26.7
2017-Nov-17 11:00N 16°13' W 125°01'2 1.7 26.7
2017-Nov-17 10:00N 16°12' W 124°59'1 0.3 26.7
2017-Nov-17 06:00N 16°13' W 125°00'2 2.1 26.8
2017-Nov-17 05:00N 16°14' W 125°02'0 0.0 26.8
2017-Nov-17 04:00N 16°14' W 125°02'1 0.4 26.8
2017-Nov-17 02:00N 16°15' W 125°02'1 0.6 26.9
2017-Nov-17 01:00N 16°15' W 125°03'1 0.8 26.9
2017-Nov-17 00:00N 16°16' W 125°04'1 0.6 26.9
2017-Nov-16 22:00N 16°15' W 125°05'0 0.0 27.0
2017-Nov-16 18:00N 16°15' W 125°05'1 0.8 26.8
2017-Nov-16 17:00N 16°16' W 125°05'1 0.8 26.8
2017-Nov-16 16:00N 16°15' W 125°06'0 0.0 26.8
2017-Nov-16 15:00N 16°15' W 125°06'1 0.6 26.8
2017-Nov-16 14:00N 16°15' W 125°05'1 0.6 26.8
2017-Nov-16 13:00N 16°15' W 125°06'1 0.3 26.8
2017-Nov-16 11:00N 16°15' W 125°05'1 0.6 26.8
2017-Nov-16 10:00N 16°15' W 125°06'1 0.1 26.8
2017-Nov-16 06:00N 16°15' W 125°05'1 0.6 26.8
2017-Nov-16 05:00N 16°15' W 125°06'1 0.6 26.8
2017-Nov-16 04:00N 16°16' W 125°06'1 0.2 26.8
2017-Nov-16 01:00N 16°16' W 125°05'1 0.6 26.9
2017-Nov-16 00:00N 16°16' W 125°05'1 0.6 26.9
2017-Nov-15 23:00N 16°16' W 125°05'0 0.0 26.9
2017-Nov-15 22:00N 16°16' W 125°05'2 0.6 26.9
2017-Nov-15 18:00N 16°19' W 125°05'0 0.0 26.8
2017-Nov-15 17:00N 16°19' W 125°05'1 0.8 26.7
2017-Nov-15 16:00N 16°19' W 125°04'0 0.0 26.7
2017-Nov-15 15:00N 16°19' W 125°04'1 0.8 26.7
2017-Nov-15 14:00N 16°20' W 125°04'0 0.0 26.7
2017-Nov-15 13:00N 16°20' W 125°04'2 1.2 26.7
2017-Nov-15 11:00N 16°22' W 125°05'1 0.1 26.7
2017-Nov-15 06:00N 16°22' W 125°05'1 0.6 26.7
2017-Nov-15 05:00N 16°22' W 125°05'1 1.3 26.8
2017-Nov-15 04:00N 16°23' W 125°06'1 0.6 26.8
2017-Nov-15 03:00N 16°23' W 125°05'0 0.0 26.8
2017-Nov-15 02:00N 16°23' W 125°05'1 0.6 26.8
2017-Nov-15 01:00N 16°23' W 125°06'1 0.6 26.9
2017-Nov-15 00:00N 16°23' W 125°07'0 0.0 26.9
2017-Nov-14 23:00N 16°23' W 125°07'0 0.0 26.9
2017-Nov-14 22:00N 16°23' W 125°07'1 0.2 26.9
2017-Nov-14 19:00N 16°22' W 125°07'0 0.0 26.8
2017-Nov-14 17:00N 16°22' W 125°07'1 0.6 26.6
2017-Nov-14 16:00N 16°22' W 125°06'0 0.0 26.6
2017-Nov-14 15:00N 16°22' W 125°06'0 0.0 26.6
2017-Nov-14 14:00N 16°22' W 125°06'4 3.5 26.6
2017-Nov-14 13:00N 16°23' W 125°02'0 0.0 26.6
2017-Nov-14 12:00N 16°23' W 125°02'0 0.0 26.6
2017-Nov-14 11:00N 16°23' W 125°02'1 0.1 26.6
2017-Nov-14 06:00N 16°23' W 125°02'1 0.8 26.6
2017-Nov-14 05:00N 16°23' W 125°01'1 0.6 26.6
2017-Nov-14 03:00N 16°25' W 125°01'1 0.8 26.6
2017-Nov-14 02:00N 16°25' W 125°01'0 0.0 26.6
2017-Nov-14 01:00N 16°25' W 125°01'1 0.3 26.7
2017-Nov-13 23:00N 16°26' W 125°01'0 0.0 26.7
2017-Nov-13 22:00N 16°26' W 125°01'3 0.8 26.7
2017-Nov-13 18:00N 16°29' W 125°01'1 0.6 26.6
2017-Nov-13 17:00N 16°29' W 125°01'1 0.8 26.6
2017-Nov-13 16:00N 16°30' W 125°02'1 0.6 26.6
2017-Nov-13 15:00N 16°29' W 125°02'1 0.8 26.6
2017-Nov-13 14:00N 16°30' W 125°02'1 0.8 26.6
2017-Nov-13 13:00N 16°29' W 125°02'3 2.7 26.6
2017-Nov-13 12:00N 16°27' W 125°03'2 2.5 26.6
2017-Nov-13 11:00N 16°29' W 125°02'3 0.6 26.6
2017-Nov-13 06:00N 16°26' W 125°02'0 0.0 26.6
2017-Nov-13 05:00N 16°26' W 125°02'0 0.0 26.7
2017-Nov-13 04:00N 16°26' W 125°02'2 0.9 26.8
2017-Nov-13 02:00N 16°26' W 125°01'1 1.3 26.8
2017-Nov-13 01:00N 16°26' W 124°59'0 0.0 26.8
2017-Nov-13 00:00N 16°26' W 124°59'0 0.0 26.8
2017-Nov-12 23:00N 16°26' W 124°59'3 0.7 26.8
2017-Nov-12 19:00N 16°26' W 124°56'1 0.6 26.8
2017-Nov-12 18:00N 16°26' W 124°56'2 2.1 26.8
2017-Nov-12 17:00N 16°28' W 124°55'1 0.4 26.8
2017-Nov-12 15:00N 16°28' W 124°54'1 0.8 26.9
2017-Nov-12 14:00N 16°28' W 124°53'0 0.0 26.9
2017-Nov-12 13:00N 16°28' W 124°53'3 2.9 26.9
2017-Nov-12 12:00N 16°29' W 124°50'2 1.8 26.9
2017-Nov-12 11:00N 16°28' W 124°52'2 0.5 26.9
2017-Nov-12 06:00N 16°29' W 124°50'0 0.0 26.9
2017-Nov-12 05:00N 16°29' W 124°50'0 0.0 26.9
2017-Nov-12 04:00N 16°29' W 124°50'1 1.2 26.9
2017-Nov-12 03:00N 16°29' W 124°49'1 0.8 26.9
2017-Nov-12 02:00N 16°28' W 124°48'1 1.2 26.9
2017-Nov-12 01:00N 16°28' W 124°47'0 0.0 26.9
2017-Nov-11 23:00N 16°28' W 124°47'5 0.9 27.0
2017-Nov-11 18:00N 16°28' W 124°42'0 0.0 27.0
2017-Nov-11 17:00N 16°28' W 124°42'2 1.8 27.0
2017-Nov-11 16:00N 16°28' W 124°40'1 0.6 27.0
2017-Nov-11 15:00N 16°28' W 124°40'1 0.6 26.9
2017-Nov-11 14:00N 16°28' W 124°40'6 3.0 27.0
2017-Nov-11 12:00N 16°26' W 124°34'4 3.5 27.0
2017-Nov-11 11:00N 16°26' W 124°38'4 3.5 27.0
2017-Nov-11 10:00N 16°26' W 124°34'0 0.0 27.0
2017-Nov-11 06:00N 16°26' W 124°34'1 0.6 27.1
2017-Nov-11 05:00N 16°26' W 124°34'1 0.8 27.1
2017-Nov-11 04:00N 16°26' W 124°33'4 1.2 27.1
2017-Nov-11 01:00N 16°24' W 124°30'0 0.0 27.1
2017-Nov-11 00:00N 16°24' W 124°30'1 0.6 27.1
2017-Nov-10 23:00N 16°25' W 124°30'3 2.9 27.1
2017-Nov-10 22:00N 16°23' W 124°28'3 0.7 27.1
2017-Nov-10 18:00N 16°20' W 124°26'0 0.0 27.1
2017-Nov-10 17:00N 16°20' W 124°26'0 0.0 27.1
2017-Nov-10 16:00N 16°20' W 124°26'1 0.8 27.1
2017-Nov-10 15:00N 16°20' W 124°25'0 0.0 27.1
2017-Nov-10 14:00N 16°20' W 124°25'0 0.0 27.1
2017-Nov-10 13:00N 16°20' W 124°25'1 0.6 27.1
2017-Nov-10 12:00N 16°19' W 124°25'3 3.1 27.1
2017-Nov-10 11:00N 16°16' W 124°25'3 3.1 27.1
2017-Nov-10 10:00N 16°19' W 124°25'3 0.8 27.1
2017-Nov-10 06:00N 16°16' W 124°24'1 0.6 27.1
2017-Nov-10 05:00N 16°16' W 124°24'1 1.3 27.1
2017-Nov-10 04:00N 16°14' W 124°25'0 0.0 27.1
2017-Nov-10 03:00N 16°14' W 124°25'1 0.6 27.1
2017-Nov-10 02:00N 16°14' W 124°25'1 1.2 27.1
2017-Nov-10 01:00N 16°13' W 124°25'0 0.0 27.1
2017-Nov-10 00:00N 16°13' W 124°25'1 1.2 27.1
2017-Nov-09 23:00N 16°12' W 124°25'0 0.0 27.1
2017-Nov-09 22:00N 16°12' W 124°25'0 0.0 27.1
2017-Nov-09 21:00N 16°12' W 124°25'3 1.0 27.1
2017-Nov-09 18:00N 16°09' W 124°25'0 0.0 27.1
2017-Nov-09 17:00N 16°09' W 124°25'1 1.3 27.1
2017-Nov-09 16:00N 16°08' W 124°24'1 0.6 27.0
2017-Nov-09 15:00N 16°07' W 124°24'0 0.0 27.1
2017-Nov-09 14:00N 16°07' W 124°24'1 0.6 27.1
2017-Nov-09 13:00N 16°07' W 124°25'1 0.8 27.1
2017-Nov-09 12:00N 16°07' W 124°25'2 2.5 27.1
2017-Nov-09 11:00N 16°05' W 124°23'2 2.5 27.1
2017-Nov-09 10:00N 16°07' W 124°25'2 0.5 27.1
2017-Nov-09 06:00N 16°05' W 124°23'1 0.8 27.1
2017-Nov-09 05:00N 16°05' W 124°23'1 0.8 27.1
2017-Nov-09 04:00N 16°04' W 124°23'1 0.4 27.1
2017-Nov-09 02:00N 16°04' W 124°24'1 0.6 27.1
2017-Nov-09 01:00N 16°04' W 124°23'1 0.6 27.2
2017-Nov-09 00:00N 16°04' W 124°24'1 1.2 27.2
2017-Nov-08 23:00N 16°04' W 124°25'0 0.0 27.2
2017-Nov-08 22:00N 16°04' W 124°25'3 0.7 27.2
2017-Nov-08 18:00N 16°01' W 124°26'1 1.3 27.1
2017-Nov-08 17:00N 16°00' W 124°27'1 0.4 27.1
2017-Nov-08 15:00N 15°59' W 124°28'2 1.9 27.1
2017-Nov-08 14:00N 15°58' W 124°28'   27.1

Dump ship's entire track history